Time;durP1;ratioP1;P1;durP2;ratioP2;P2;SDS_P1;SDS_P2;PMS_P1;PMS_P2;Temp;Humidity;BMP_temperature;BMP_pressure;BME280_temperature;BME280_humidity;BME280_pressure;Samples;Min_cycle;Max_cycle;Signal;HPM_P1;HPM_P2
2021/09/26 00:02:24;;;;;;;8.90;3.50;;;;;;;13.99;74.89;100782.86;1752865;82;21482;-79
2021/09/26 00:04:51;;;;;;;8.25;3.67;;;;;;;14.01;74.95;100777.00;1752644;80;20881;-77
2021/09/26 00:07:18;;;;;;;10.80;4.10;;;;;;;14.05;75.00;100773.64;1752429;81;20845;-78
2021/09/26 00:09:45;;;;;;;7.17;4.15;;;;;;;14.08;75.02;100777.40;1716717;83;20908;-77
2021/09/26 00:12:11;;;;;;;6.65;3.45;;;;;;;14.10;75.05;100776.81;1716454;83;21374;-78
2021/09/26 00:14:38;;;;;;;6.28;3.17;;;;;;;14.14;75.02;100784.88;1716934;82;21492;-77
2021/09/26 00:17:06;;;;;;;8.70;3.83;;;;;;;14.15;75.01;100781.27;1716460;83;20936;-77
2021/09/26 00:19:33;;;;;;;9.43;3.42;;;;;;;14.19;75.00;100781.90;1716417;82;20967;-77
2021/09/26 00:21:59;;;;;;;8.15;3.35;;;;;;;14.21;74.99;100782.15;1716413;82;20963;-78
2021/09/26 00:24:26;;;;;;;10.85;4.47;;;;;;;14.24;74.95;100783.23;1711348;82;20888;-78
2021/09/26 00:26:54;;;;;;;6.97;3.70;;;;;;;14.27;74.88;100784.80;1708998;84;21543;-78
2021/09/26 00:29:21;;;;;;;5.30;3.83;;;;;;;14.29;74.87;100788.17;1709127;82;20900;-77
2021/09/26 00:31:48;;;;;;;10.53;3.67;;;;;;;14.32;74.80;100786.65;1708738;84;20931;-79
2021/09/26 00:34:15;;;;;;;6.58;3.52;;;;;;;14.35;74.73;100778.98;1708559;84;20892;-79
2021/09/26 00:36:42;;;;;;;5.42;3.47;;;;;;;14.38;74.69;100774.79;1708612;84;20955;-78
2021/09/26 00:39:08;;;;;;;8.03;4.17;;;;;;;14.40;74.72;100768.92;1708703;84;22145;-79
2021/09/26 00:41:36;;;;;;;11.83;4.20;;;;;;;14.42;74.72;100753.34;1708750;82;20915;-78
2021/09/26 00:44:03;;;;;;;7.58;4.37;;;;;;;14.44;74.76;100760.67;1708796;84;20932;-78
2021/09/26 00:46:30;;;;;;;7.37;4.83;;;;;;;14.46;74.79;100762.72;1708794;84;20896;-77
2021/09/26 00:48:57;;;;;;;12.25;4.85;;;;;;;14.50;74.79;100756.74;1708786;84;20892;-78
2021/09/26 00:51:24;;;;;;;8.68;4.70;;;;;;;14.52;74.75;100752.20;1708986;84;22169;-77
2021/09/26 00:53:51;;;;;;;8.43;4.72;;;;;;;14.54;74.70;100755.56;1708825;84;20884;-78
2021/09/26 00:56:17;;;;;;;8.68;4.30;;;;;;;14.55;74.59;100751.16;1708972;84;20910;-78
2021/09/26 00:58:45;;;;;;;6.92;4.28;;;;;;;14.58;74.53;100756.19;1708943;82;21314;-78
2021/09/26 01:01:12;;;;;;;6.90;3.60;;;;;;;14.59;74.40;100749.48;1708817;82;21018;-78
2021/09/26 01:03:39;;;;;;;6.65;4.03;;;;;;;14.59;74.30;100750.81;1708680;84;21131;-78
2021/09/26 01:06:58;;;;;;;9.10;4.03;;;;;;;14.60;74.27;100750.32;1709044;84;20881;-81
2021/09/26 01:10:11;;;;;;;12.45;5.37;;;;;;;14.61;74.23;100744.94;1708925;82;20869;-79
2021/09/26 01:12:47;;;;;;;9.30;4.53;;;;;;;14.63;74.27;100743.48;1744737;81;20905;-78
2021/09/26 01:15:46;;;;;;;12.13;4.58;;;;;;;14.63;74.25;100748.31;1744338;81;20916;-78
2021/09/26 01:18:33;;;;;;;7.05;3.90;;;;;;;14.63;74.26;100745.67;1744855;82;21521;-78
2021/09/26 01:21:09;;;;;;;9.30;3.95;;;;;;;14.63;74.29;100748.31;1708656;83;21529;-78
2021/09/26 01:24:25;;;;;;;8.35;4.50;;;;;;;14.63;74.38;100744.80;1708569;83;21533;-78
2021/09/26 01:27:21;;;;;;;11.53;4.97;;;;;;;14.63;74.42;100743.48;1749906;80;21422;-79
2021/09/26 01:30:17;;;;;;;9.25;4.65;;;;;;;14.61;74.48;100747.58;1711800;83;20888;-77
2021/09/26 01:32:58;;;;;;;7.40;4.42;;;;;;;14.62;74.57;100747.09;1712093;83;21065;-78
2021/09/26 01:35:26;;;;;;;11.85;6.10;;;;;;;14.62;74.67;100747.92;1750321;80;20889;-79
2021/09/26 01:38:12;;;;;;;6.30;4.60;;;;;;;14.64;74.68;100753.10;1749949;80;21510;-78
2021/09/26 01:40:59;;;;;;;12.10;4.47;;;;;;;14.64;74.72;100753.94;1750357;80;20956;-79
2021/09/26 01:43:34;;;;;;;10.95;4.70;;;;;;;14.66;74.77;100749.88;1750678;82;21346;-78
2021/09/26 01:46:08;;;;;;;9.53;5.80;;;;;;;14.67;74.85;100750.22;1711984;83;21135;-77
2021/09/26 01:48:52;;;;;;;8.73;5.00;;;;;;;14.68;74.89;100751.44;1712290;83;20888;-77
2021/09/26 01:51:19;;;;;;;11.00;5.15;;;;;;;14.71;74.97;100751.19;1711885;83;21011;-77
2021/09/26 01:53:46;;;;;;;10.65;5.17;;;;;;;14.71;75.03;100744.59;1712153;83;21423;-78
2021/09/26 01:56:14;;;;;;;12.25;5.35;;;;;;;14.74;75.04;100746.19;1750887;82;20928;-77
2021/09/26 01:58:44;;;;;;;10.53;5.45;;;;;;;14.73;75.02;100748.45;1751082;82;21122;-78
2021/09/26 02:01:12;;;;;;;11.88;6.00;;;;;;;14.74;75.03;100752.78;1685767;83;20956;-79
2021/09/26 02:03:40;;;;;;;10.98;5.40;;;;;;;14.75;75.05;100759.73;1686424;83;21456;-78
2021/09/26 02:06:07;;;;;;;14.25;6.75;;;;;;;14.76;75.03;100757.93;1712179;83;21011;-78
2021/09/26 02:08:34;;;;;;;11.55;6.37;;;;;;;14.76;75.07;100753.97;1711893;83;21406;-79
2021/09/26 02:11:01;;;;;;;11.18;5.33;;;;;;;14.76;75.11;100756.61;1712169;83;21494;-78
2021/09/26 02:13:28;;;;;;;11.88;6.65;;;;;;;14.77;75.13;100754.34;1712188;83;21347;-80
2021/09/26 02:15:55;;;;;;;13.25;6.75;;;;;;;14.79;75.18;100758.55;1713806;83;20927;-79
2021/09/26 02:18:22;;;;;;;7.85;5.72;;;;;;;14.79;75.19;100757.72;1700867;82;20913;-77
2021/09/26 02:20:50;;;;;;;12.15;6.22;;;;;;;14.80;75.24;100760.70;1686708;83;20967;-78
2021/09/26 02:23:17;;;;;;;10.05;6.05;;;;;;;14.79;75.35;100762.51;1711927;83;21524;-79
2021/09/26 02:25:44;;;;;;;8.23;5.25;;;;;;;14.80;75.34;100755.42;1715875;82;20880;-80
2021/09/26 02:28:11;;;;;;;10.03;6.25;;;;;;;14.80;75.38;100762.86;1716473;83;20900;-80
2021/09/26 02:30:40;;;;;;;10.10;5.42;;;;;;;14.81;75.45;100764.56;1716365;83;20987;-80
2021/09/26 02:33:07;;;;;;;7.40;5.33;;;;;;;14.83;75.52;100761.78;1716603;82;20927;-79
2021/09/26 02:35:33;;;;;;;16.52;6.03;;;;;;;14.84;75.52;100769.59;1716556;83;21469;-79
2021/09/26 02:38:00;;;;;;;10.93;6.12;;;;;;;14.85;75.53;100758.09;1716595;82;20896;-78
2021/09/26 02:40:27;;;;;;;9.70;6.33;;;;;;;14.84;75.54;100768.27;1716537;83;20928;-78
2021/09/26 02:43:13;;;;;;;9.83;7.08;;;;;;;14.85;75.61;100769.98;1716590;82;20904;-79
2021/09/26 02:45:49;;;;;;;9.83;6.37;;;;;;;14.86;75.68;100772.13;1746482;82;20983;-80
2021/09/26 02:48:20;;;;;;;10.38;6.90;;;;;;;14.87;75.77;100781.72;1753457;81;21058;-81
2021/09/26 02:50:48;;;;;;;9.95;5.85;;;;;;;14.87;75.79;100777.30;1749134;80;20862;-79
2021/09/26 02:53:15;;;;;;;9.95;5.62;;;;;;;14.89;75.80;100779.32;1752788;82;20932;-80
2021/09/26 02:55:44;;;;;;;12.30;6.92;;;;;;;14.90;75.82;100769.63;1733321;82;21046;-78
2021/09/26 02:58:11;;;;;;;13.22;6.45;;;;;;;14.91;75.81;100775.25;1716503;83;21027;-79
2021/09/26 03:00:43;;;;;;;10.40;6.85;;;;;;;14.92;75.80;100773.83;1716480;83;21794;-80
2021/09/26 03:03:20;;;;;;;13.03;6.08;;;;;;;14.95;75.74;100779.84;1716477;83;20916;-80
2021/09/26 03:05:47;;;;;;;9.50;7.35;;;;;;;14.96;75.75;100777.55;1716215;83;21358;-78
2021/09/26 03:08:14;;;;;;;13.22;6.35;;;;;;;14.96;75.73;100778.38;1716603;82;20936;-78
2021/09/26 03:10:43;;;;;;;10.15;6.65;;;;;;;14.96;75.81;100784.98;1716544;83;20931;-78
2021/09/26 03:13:10;;;;;;;14.95;7.50;;;;;;;14.96;75.79;100783.66;1716504;83;21071;-77
2021/09/26 03:15:37;;;;;;;8.88;7.15;;;;;;;14.98;75.84;100782.23;1716188;83;20920;-80
2021/09/26 03:18:04;;;;;;;11.88;7.85;;;;;;;14.98;75.90;100787.52;1716703;83;20888;-77
2021/09/26 03:20:31;;;;;;;10.98;7.47;;;;;;;14.99;76.00;100783.45;1716359;83;20943;-77
2021/09/26 03:22:58;;;;;;;15.18;8.75;;;;;;;15.00;76.10;100791.72;1716347;83;20928;-78
2021/09/26 03:25:25;;;;;;;11.57;8.45;;;;;;;15.00;76.17;100779.83;1711215;82;21131;-78
2021/09/26 03:27:51;;;;;;;14.30;9.73;;;;;;;15.01;76.25;100784.17;1709125;83;20939;-77
2021/09/26 03:30:19;;;;;;;13.58;9.33;;;;;;;15.03;76.37;100793.28;1708791;84;20935;-78
2021/09/26 03:32:46;;;;;;;13.58;8.98;;;;;;;15.03;76.46;100798.56;1708757;82;20951;-78
2021/09/26 03:35:13;;;;;;;9.98;8.55;;;;;;;15.02;76.54;100800.37;1709092;84;20896;-78
2021/09/26 03:37:40;;;;;;;13.25;9.63;;;;;;;15.03;76.65;100794.14;1708989;82;21528;-78
2021/09/26 03:40:08;;;;;;;13.75;9.10;;;;;;;15.04;76.72;100799.78;1708578;84;20935;-78
2021/09/26 03:42:37;;;;;;;15.15;10.48;;;;;;;15.06;76.90;100793.06;1708843;84;20885;-78
2021/09/26 03:45:04;;;;;;;15.25;9.48;;;;;;;15.07;76.95;100802.66;1744688;80;20944;-78
2021/09/26 03:47:31;;;;;;;13.70;10.20;;;;;;;15.08;77.08;100791.16;1744430;82;21390;-79
2021/09/26 03:49:58;;;;;;;15.98;9.15;;;;;;;15.08;77.19;100794.62;1744743;82;21478;-77
2021/09/26 03:52:24;;;;;;;11.48;8.88;;;;;;;15.08;77.27;100795.95;1744699;82;20877;-77
2021/09/26 03:54:51;;;;;;;11.18;8.08;;;;;;;15.11;77.32;100805.44;1744432;82;20882;-78
2021/09/26 03:57:19;;;;;;;13.62;9.68;;;;;;;15.11;77.40;100805.44;1744591;81;20862;-78
2021/09/26 03:59:46;;;;;;;14.15;9.00;;;;;;;15.12;77.45;100808.45;1745548;82;21375;-79
2021/09/26 04:02:12;;;;;;;12.37;8.90;;;;;;;15.13;77.55;100810.13;1745835;80;21130;-79
2021/09/26 04:04:39;;;;;;;17.25;11.53;;;;;;;15.12;77.60;100805.33;1745836;82;20932;-79
2021/09/26 04:07:06;;;;;;;12.20;10.70;;;;;;;15.14;77.64;100807.86;1744792;81;20925;-78
2021/09/26 04:09:33;;;;;;;17.45;10.85;;;;;;;15.13;77.74;100807.00;1744321;82;20929;-81
2021/09/26 04:12:00;;;;;;;13.83;9.38;;;;;;;15.16;77.79;100815.65;1744790;80;20964;-80
2021/09/26 04:14:27;;;;;;;19.90;12.50;;;;;;;15.17;77.87;100807.61;1744696;80;22177;-79
2021/09/26 04:16:53;;;;;;;20.10;12.15;;;;;;;15.21;77.94;100812.20;1744328;80;20948;-79
2021/09/26 04:19:20;;;;;;;16.70;10.30;;;;;;;15.23;78.00;100807.61;1744827;81;21360;-79
2021/09/26 04:21:50;;;;;;;15.50;9.40;;;;;;;15.26;78.01;100803.43;1744814;82;20881;-78
2021/09/26 04:24:15;;;;;;;14.55;9.70;;;;;;;15.26;77.98;100797.66;1744347;81;20905;-79
2021/09/26 04:26:42;;;;;;;14.85;9.38;;;;;;;15.29;77.90;100796.09;1744765;80;21122;-78
2021/09/26 04:29:09;;;;;;;11.05;9.10;;;;;;;15.30;77.86;100797.79;1744649;82;20976;-79
2021/09/26 04:31:37;;;;;;;11.88;9.38;;;;;;;15.31;77.83;100792.85;1708633;84;20924;-79
2021/09/26 04:34:04;;;;;;;11.78;8.33;;;;;;;15.34;77.70;100799.23;1708963;84;20896;-77
2021/09/26 04:39:39;;;;;;;14.63;10.03;;;;;;;15.45;77.67;100800.19;1797658;79;23829;-78
2021/09/26 04:42:09;;;;;;;13.60;8.75;;;;;;;15.42;77.56;100806.56;1758352;80;20971;-77
2021/09/26 04:44:36;;;;;;;11.75;9.45;;;;;;;15.46;77.46;100805.86;1758368;80;22214;-79
2021/09/26 04:47:03;;;;;;;13.83;8.40;;;;;;;15.49;77.35;100808.25;1758276;80;21442;-79
2021/09/26 04:49:30;;;;;;;9.90;7.95;;;;;;;15.51;77.31;100815.09;1758351;80;21001;-79
2021/09/26 04:51:58;;;;;;;13.13;8.70;;;;;;;15.55;77.22;100816.55;1758400;80;20892;-81
2021/09/26 04:54:25;;;;;;;15.10;9.18;;;;;;;15.57;77.14;100815.11;1772497;80;20927;-81
2021/09/26 04:56:52;;;;;;;14.50;9.85;;;;;;;15.62;77.17;100816.07;1792445;80;21528;-78
2021/09/26 04:59:19;;;;;;;14.68;8.70;;;;;;;15.69;77.20;100808.02;1792634;78;20970;-80
2021/09/26 05:01:46;;;;;;;12.25;9.83;;;;;;;15.80;77.20;100815.14;1792343;80;21364;-79
2021/09/26 05:04:13;;;;;;;14.63;9.13;;;;;;;15.90;77.03;100816.94;1793299;80;20843;-79
2021/09/26 05:06:39;;;;;;;13.93;10.15;;;;;;;16.00;76.78;100822.81;1792709;78;21417;-80
2021/09/26 05:09:07;;;;;;;13.00;10.28;;;;;;;16.09;76.54;100817.63;1792753;80;21136;-79
2021/09/26 05:11:33;;;;;;;18.45;11.33;;;;;;;16.18;76.25;100821.83;1792402;80;21380;-80
2021/09/26 05:14:00;;;;;;;19.37;12.40;;;;;;;16.25;76.05;100818.58;1792791;80;20910;-77
2021/09/26 05:16:27;;;;;;;17.77;13.53;;;;;;;16.32;75.84;100819.76;1792504;80;20958;-78
2021/09/26 05:18:54;;;;;;;19.20;13.08;;;;;;;16.42;75.61;100820.33;1792804;80;20883;-79
2021/09/26 05:21:21;;;;;;;29.07;15.32;;;;;;;16.51;75.34;100825.70;1792604;80;21105;-79
2021/09/26 05:23:49;;;;;;;18.85;13.50;;;;;;;16.60;75.02;100827.25;1792353;80;21377;-79
2021/09/26 05:26:17;;;;;;;18.20;11.93;;;;;;;16.66;74.79;100827.58;1792492;80;20927;-79
2021/09/26 05:28:44;;;;;;;24.02;13.53;;;;;;;16.76;74.62;100825.87;1792819;80;20891;-79
2021/09/26 05:31:11;;;;;;;22.45;12.98;;;;;;;16.86;74.24;100832.59;1792461;80;21388;-80
2021/09/26 05:33:38;;;;;;;18.60;13.25;;;;;;;16.96;73.92;100828.67;1792462;80;21533;-79
2021/09/26 05:36:06;;;;;;;21.15;14.30;;;;;;;17.05;73.63;100834.55;1792513;78;20958;-80
2021/09/26 05:38:33;;;;;;;21.27;13.83;;;;;;;17.20;73.39;100835.89;1787820;80;20883;-79
2021/09/26 05:41:00;;;;;;;25.37;16.50;;;;;;;17.50;72.73;100825.48;1744253;82;20919;-78
2021/09/26 05:43:27;;;;;;;19.37;13.93;;;;;;;17.78;72.24;100818.59;1744605;82;21449;-77
2021/09/26 05:45:53;;;;;;;23.45;12.05;;;;;;;17.78;72.24;100818.59;1717820;82;21093;-78
2021/09/26 05:48:20;;;;;;;16.85;10.58;;;;;;;18.12;71.35;100815.66;1781465;80;20888;-78
2021/09/26 05:50:47;;;;;;;13.18;9.18;;;;;;;18.40;70.52;100815.37;1743773;82;21027;-77
2021/09/26 05:53:14;;;;;;;14.53;7.97;;;;;;;18.76;69.59;100811.67;1744023;82;20943;-76
2021/09/26 05:55:41;;;;;;;13.62;7.87;;;;;;;19.31;67.83;100802.59;1717389;82;20898;-77
2021/09/26 05:58:08;;;;;;;16.57;8.13;;;;;;;19.92;66.37;100805.27;1780953;80;21498;-76
2021/09/26 06:00:35;;;;;;;7.60;5.97;;;;;;;20.47;64.22;100803.83;1780753;80;20876;-76
2021/09/26 06:03:02;;;;;;;8.60;7.03;;;;;;;20.75;62.35;100802.96;1780899;80;20883;-77
2021/09/26 06:05:28;;;;;;;10.15;6.25;;;;;;;20.84;61.64;100812.70;1750442;80;20930;-81
2021/09/26 06:07:55;;;;;;;10.55;7.45;;;;;;;20.90;61.43;100810.75;1781123;79;20951;-82
2021/09/26 06:10:22;;;;;;;9.40;5.62;;;;;;;21.17;60.97;100806.28;1780601;80;21516;-83
2021/09/26 06:12:49;;;;;;;9.85;5.17;;;;;;;21.37;59.97;100811.73;1780929;80;21361;-81
2021/09/26 06:15:16;;;;;;;9.25;6.03;;;;;;;21.43;59.10;100811.14;1780786;79;20896;-81
2021/09/26 06:17:43;;;;;;;7.15;5.03;;;;;;;21.37;58.60;100817.07;1781018;80;21498;-80
2021/09/26 06:20:11;;;;;;;7.15;5.53;;;;;;;21.31;58.65;100822.53;1780965;80;20986;-81
2021/09/26 06:22:38;;;;;;;7.97;4.67;;;;;;;21.11;58.47;100827.73;1781041;80;21812;-80
2021/09/26 06:25:05;;;;;;;5.45;4.55;;;;;;;20.74;58.74;100825.26;1780611;80;21076;-80
2021/09/26 06:27:32;;;;;;;4.83;4.30;;;;;;;20.37;59.69;100824.89;1781067;79;20888;-80
2021/09/26 06:29:59;;;;;;;6.22;4.40;;;;;;;20.17;60.63;100826.34;1780724;79;20915;-79
2021/09/26 06:32:31;;;;;;;5.15;4.65;;;;;;;20.05;61.13;100827.05;1780975;80;20919;-80
2021/09/26 06:34:56;;;;;;;5.35;4.42;;;;;;;19.94;61.37;100830.38;1780486;80;21558;-80
2021/09/26 06:37:23;;;;;;;6.50;4.10;;;;;;;19.82;61.82;100828.42;1780686;79;20868;-79
2021/09/26 06:39:50;;;;;;;8.93;4.25;;;;;;;19.70;61.84;100838.89;1785483;79;20860;-79
2021/09/26 06:42:17;;;;;;;6.45;4.55;;;;;;;20.04;62.28;100841.83;1786541;79;20962;-77
2021/09/26 06:44:44;;;;;;;7.33;4.90;;;;;;;20.46;61.73;100832.80;1786806;80;21006;-77
2021/09/26 06:47:12;;;;;;;4.33;3.92;;;;;;;20.76;59.64;100828.11;1786568;80;21167;-78
2021/09/26 06:49:39;;;;;;;6.78;4.50;;;;;;;20.88;58.79;100827.39;1786538;80;20986;-78
2021/09/26 06:52:06;;;;;;;5.25;4.03;;;;;;;20.86;58.74;100826.71;1786472;80;21373;-79
2021/09/26 06:54:33;;;;;;;5.55;3.70;;;;;;;20.90;58.60;100827.58;1786761;79;20844;-77
2021/09/26 06:57:00;;;;;;;4.87;4.10;;;;;;;20.94;58.77;100825.42;1786472;79;20927;-79
2021/09/26 06:59:29;;;;;;;3.85;3.55;;;;;;;21.21;58.34;100827.62;1786571;80;21516;-79
2021/09/26 07:01:56;;;;;;;6.05;3.30;;;;;;;21.26;57.19;100826.67;1786896;79;21038;-79
2021/09/26 07:04:24;;;;;;;5.22;4.17;;;;;;;21.10;56.90;100818.90;1786572;80;20927;-80
2021/09/26 07:06:52;;;;;;;5.28;3.83;;;;;;;20.90;57.13;100823.58;1786386;80;21385;-78
2021/09/26 07:09:19;;;;;;;5.67;4.50;;;;;;;20.66;57.49;100822.87;1786855;80;20974;-76
2021/09/26 07:11:45;;;;;;;4.92;4.40;;;;;;;20.38;58.19;100826.56;1786316;79;22104;-79
2021/09/26 07:14:13;;;;;;;7.45;4.60;;;;;;;20.09;58.83;100831.57;1786660;80;20903;-79
2021/09/26 07:16:40;;;;;;;6.10;4.22;;;;;;;19.94;59.19;100828.55;1786741;80;21030;-83
2021/09/26 07:19:06;;;;;;;5.25;4.20;;;;;;;20.09;59.89;100833.73;1789033;79;20970;-81
2021/09/26 07:21:33;;;;;;;7.00;4.45;;;;;;;20.63;59.60;100832.52;1789247;80;20994;-79
2021/09/26 07:24:01;;;;;;;6.62;3.85;;;;;;;20.94;58.61;100834.75;1788997;79;21109;-79
2021/09/26 07:26:29;;;;;;;6.00;3.87;;;;;;;21.05;57.36;100839.02;1788923;80;20927;-77
2021/09/26 07:28:55;;;;;;;4.65;3.72;;;;;;;20.98;57.27;100834.79;1788342;80;21047;-81
2021/09/26 07:31:22;;;;;;;6.03;3.83;;;;;;;21.07;57.14;100844.53;1786852;79;20931;-81
2021/09/26 07:33:50;;;;;;;7.55;2.98;;;;;;;21.11;55.08;100835.23;1787328;80;20883;-82
2021/09/26 07:36:18;;;;;;;4.70;3.27;;;;;;;21.24;54.29;100852.66;1786699;80;21149;-81
2021/09/26 07:38:45;;;;;;;4.83;4.33;;;;;;;21.42;53.47;100848.65;1786403;80;20990;-81
2021/09/26 07:41:12;;;;;;;5.12;3.87;;;;;;;21.78;52.97;100855.19;1786519;80;20986;-77
2021/09/26 07:43:39;;;;;;;5.92;2.92;;;;;;;22.38;51.68;100856.43;1786384;80;20880;-80
2021/09/26 07:46:05;;;;;;;4.75;3.47;;;;;;;23.03;50.59;100854.35;1786511;80;21475;-77
2021/09/26 07:48:32;;;;;;;5.58;3.20;;;;;;;23.75;48.48;100857.63;1786277;80;21491;-78
2021/09/26 07:50:59;;;;;;;2.95;2.40;;;;;;;24.36;46.85;100849.28;1786492;79;20967;-79
2021/09/26 07:53:28;;;;;;;3.27;2.12;;;;;;;24.98;46.00;100847.02;1786593;80;21403;-80
2021/09/26 07:55:55;;;;;;;6.17;2.50;;;;;;;25.51;43.04;100849.73;1786803;80;20891;-78
2021/09/26 07:58:26;;;;;;;4.28;2.22;;;;;;;26.00;42.02;100849.70;1786307;80;20860;-79
2021/09/26 08:00:54;;;;;;;4.30;1.72;;;;;;;26.40;40.47;100848.81;1786468;79;21152;-77
2021/09/26 08:03:21;;;;;;;4.30;1.57;;;;;;;26.71;39.47;100851.23;1786641;79;20910;-78
2021/09/26 08:05:48;;;;;;;5.50;1.98;;;;;;;26.71;37.41;100853.09;1786339;79;20903;-80
2021/09/26 08:08:15;;;;;;;6.10;1.98;;;;;;;26.57;36.47;100847.59;1786307;80;20923;-78
2021/09/26 08:10:43;;;;;;;5.85;2.02;;;;;;;26.69;36.67;100847.07;1786340;79;21473;-80
2021/09/26 08:13:10;;;;;;;5.65;2.12;;;;;;;26.78;36.41;100852.12;1786436;80;21776;-79
2021/09/26 08:15:37;;;;;;;5.85;2.00;;;;;;;27.06;36.35;100850.81;1786837;80;20966;-79
2021/09/26 08:18:04;;;;;;;7.33;1.75;;;;;;;26.97;36.79;100849.78;1786659;79;21344;-75
2021/09/26 08:20:36;;;;;;;6.05;2.00;;;;;;;26.87;36.34;100850.95;1786806;79;20982;-82
2021/09/26 08:23:00;;;;;;;3.83;1.60;;;;;;;26.65;36.54;100858.20;1757733;80;20888;-77
2021/09/26 08:25:27;;;;;;;5.58;2.27;;;;;;;26.82;36.41;100857.44;1786605;79;21477;-78
2021/09/26 08:27:56;;;;;;;2.17;1.70;;;;;;;27.01;36.49;100852.41;1786379;80;20954;-78
2021/09/26 08:30:27;;;;;;;7.45;1.82;;;;;;;27.15;35.76;100853.38;1783225;80;21452;-78
2021/09/26 08:32:55;;;;;;;6.65;2.27;;;;;;;27.11;35.22;100865.04;1786282;79;20923;-78
2021/09/26 08:35:22;;;;;;;6.17;2.00;;;;;;;27.13;35.11;100864.33;1786530;80;20868;-78
2021/09/26 08:37:50;;;;;;;6.53;1.82;;;;;;;27.41;34.64;100852.25;1786430;80;21141;-81
2021/09/26 08:40:17;;;;;;;3.25;1.62;;;;;;;27.67;34.43;100852.90;1782107;80;21037;-85
2021/09/26 08:42:44;;;;;;;3.20;2.20;;;;;;;27.82;33.71;100843.87;1780829;80;21338;-80
2021/09/26 08:45:14;;;;;;;3.47;2.17;;;;;;;27.74;33.70;100846.72;1780612;80;20892;-78
2021/09/26 08:47:45;;;;;;;5.47;2.70;;;;;;;27.71;33.96;100852.00;1780454;80;20880;-80
2021/09/26 08:50:15;;;;;;;3.00;1.60;;;;;;;27.58;34.25;100850.05;1780801;79;21053;-76
2021/09/26 08:52:45;;;;;;;7.27;2.03;;;;;;;27.43;33.16;100858.24;1780833;80;20907;-78
2021/09/26 08:55:13;;;;;;;4.87;2.12;;;;;;;27.29;34.06;100857.33;1780811;79;20907;-77
2021/09/26 08:57:43;;;;;;;4.70;1.80;;;;;;;27.37;33.75;100856.85;1780412;79;20900;-77
2021/09/26 09:00:13;;;;;;;7.15;2.80;;;;;;;27.42;34.08;100859.28;1780943;79;20899;-77
2021/09/26 09:02:42;;;;;;;5.42;2.45;;;;;;;27.61;33.69;100853.69;1780738;80;21354;-77
2021/09/26 09:05:25;;;;;;;3.67;1.67;;;;;;;27.65;33.98;100850.09;1780870;79;20919;-70
2021/09/26 09:08:13;;;;;;;4.47;3.30;;;;;;;27.65;37.61;100858.17;1780388;80;20872;-69
2021/09/26 09:10:53;;;;;;;2.67;2.33;;;;;;;27.49;39.32;100858.81;1780624;80;20994;-71
2021/09/26 09:13:34;;;;;;;2.95;1.85;;;;;;;27.35;39.26;100865.67;1780614;80;21421;-70
2021/09/26 09:16:05;;;;;;;2.92;1.72;;;;;;;27.15;35.82;100865.49;1780799;80;21567;-69
2021/09/26 09:18:45;;;;;;;6.58;2.45;;;;;;;26.73;35.12;100873.40;1780417;79;20852;-69
2021/09/26 09:21:25;;;;;;;5.45;2.10;;;;;;;26.32;38.37;100865.06;1780945;80;21334;-70
2021/09/26 09:23:56;;;;;;;5.62;2.02;;;;;;;25.89;38.26;100868.47;1780447;80;20880;-69
2021/09/26 09:26:39;;;;;;;7.33;1.80;;;;;;;25.65;37.04;100874.41;1774590;80;20955;-69
2021/09/26 09:29:06;;;;;;;8.98;1.95;;;;;;;25.52;37.48;100870.70;1780915;79;21140;-69
2021/09/26 09:31:33;;;;;;;6.22;1.90;;;;;;;25.71;37.64;100870.16;1781023;80;20868;-70
2021/09/26 09:34:04;;;;;;;5.55;1.85;;;;;;;25.89;36.95;100867.13;1780822;79;20931;-73
2021/09/26 09:36:29;;;;;;;5.97;2.52;;;;;;;25.98;36.76;100868.69;1780940;79;21461;-70
2021/09/26 09:39:04;;;;;;;6.50;2.30;;;;;;;25.81;36.73;100861.33;1780705;79;20967;-70
2021/09/26 09:41:44;;;;;;;5.83;2.52;;;;;;;25.57;37.02;100871.00;1780749;80;21142;-70
2021/09/26 09:44:13;;;;;;;7.17;1.77;;;;;;;25.33;37.59;100878.80;1781070;79;20911;-73
2021/09/26 09:46:45;;;;;;;3.40;1.77;;;;;;;24.97;37.33;100874.05;1780701;79;20916;-71
2021/09/26 09:49:20;;;;;;;6.22;2.80;;;;;;;24.80;37.94;100867.97;1781027;80;20939;-72
2021/09/26 09:51:59;;;;;;;2.67;1.70;;;;;;;24.67;38.86;100865.88;1780681;79;20966;-73
2021/09/26 09:54:37;;;;;;;5.03;2.02;;;;;;;24.76;38.97;100867.48;1780833;80;21401;-72
2021/09/26 09:57:15;;;;;;;8.55;2.00;;;;;;;25.05;38.66;100865.09;1780562;79;21361;-78
2021/09/26 09:59:44;;;;;;;5.70;2.35;;;;;;;25.44;37.31;100850.16;1781164;80;21363;-74
2021/09/26 10:02:11;;;;;;;3.92;2.05;;;;;;;25.96;37.69;100858.63;1780793;80;21308;-72
2021/09/26 10:04:45;;;;;;;7.72;1.85;;;;;;;26.45;36.37;100851.76;1780726;80;20864;-69
2021/09/26 10:07:24;;;;;;;5.92;2.50;;;;;;;26.77;36.47;100857.68;1780874;80;21532;-70
2021/09/26 10:09:52;;;;;;;3.65;2.10;;;;;;;26.79;35.91;100856.98;1780009;80;20899;-72
2021/09/26 10:12:27;;;;;;;6.87;2.47;;;;;;;26.63;35.17;100862.94;1780724;80;20971;-72
2021/09/26 10:14:59;;;;;;;5.17;2.15;;;;;;;26.55;34.87;100856.36;1781042;80;20895;-72
2021/09/26 10:17:27;;;;;;;3.17;1.72;;;;;;;26.29;34.78;100860.90;1780979;80;21009;-69
2021/09/26 10:19:54;;;;;;;4.20;2.27;;;;;;;25.96;35.33;100856.47;1780921;80;21449;-71
2021/09/26 10:22:22;;;;;;;4.17;2.25;;;;;;;25.54;36.04;100851.21;1780676;79;21401;-71
2021/09/26 10:24:54;;;;;;;5.33;1.92;;;;;;;25.12;36.57;100860.66;1781115;79;20967;-70
2021/09/26 10:27:22;;;;;;;5.55;1.98;;;;;;;24.82;37.77;100868.63;1780854;80;20888;-70
2021/09/26 10:29:54;;;;;;;3.25;1.60;;;;;;;24.68;37.94;100874.27;1781069;80;20928;-71
2021/09/26 10:32:20;;;;;;;7.17;2.02;;;;;;;24.53;37.22;100866.14;1780608;79;21112;-71
2021/09/26 10:34:47;;;;;;;6.28;2.40;;;;;;;24.75;37.66;100860.98;1780935;80;21394;-70
2021/09/26 10:37:14;;;;;;;6.70;2.20;;;;;;;24.72;38.50;100866.68;1726284;80;20856;-71
2021/09/26 10:39:42;;;;;;;11.50;2.87;;;;;;;24.53;38.16;100863.46;1782170;79;20880;-68
2021/09/26 10:42:17;;;;;;;5.70;2.33;;;;;;;24.18;39.25;100868.82;1787036;80;20887;-70
2021/09/26 10:44:54;;;;;;;4.87;2.12;;;;;;;23.72;38.50;100869.97;1786678;80;21193;-74
2021/09/26 10:47:24;;;;;;;4.33;1.87;;;;;;;23.66;38.51;100863.98;1788332;80;20907;-72
2021/09/26 10:49:59;;;;;;;5.80;1.77;;;;;;;23.83;38.52;100858.09;1787975;79;20915;-73
2021/09/26 10:52:30;;;;;;;4.28;1.82;;;;;;;24.22;38.44;100868.80;1786626;80;20928;-72
2021/09/26 10:55:30;;;;;;;5.35;1.82;;;;;;;24.66;38.13;100858.86;1788242;80;20950;-71
2021/09/26 10:58:12;;;;;;;5.55;2.22;;;;;;;24.92;37.91;100876.42;1786800;79;21094;-69
2021/09/26 11:00:46;;;;;;;3.33;1.60;;;;;;;25.09;36.33;100877.13;1786296;80;20947;-69
2021/09/26 11:03:15;;;;;;;5.40;2.08;;;;;;;24.91;37.06;100867.55;1757619;80;20840;-75
2021/09/26 11:05:46;;;;;;;5.58;1.92;;;;;;;24.68;36.70;100870.24;1786379;80;20926;-69
2021/09/26 11:08:26;;;;;;;3.92;2.12;;;;;;;24.49;37.01;100869.36;1786220;80;20887;-69
2021/09/26 11:10:55;;;;;;;6.35;2.98;;;;;;;24.33;37.08;100863.56;1784059;80;21804;-70
2021/09/26 11:13:36;;;;;;;5.03;1.95;;;;;;;24.15;37.19;100869.19;1786568;80;20885;-71
2021/09/26 11:16:10;;;;;;;4.53;1.60;;;;;;;23.92;37.61;100863.73;1786485;79;20887;-69
2021/09/26 11:18:54;;;;;;;3.25;1.77;;;;;;;23.65;37.28;100863.13;1786380;80;21010;-70
2021/09/26 11:21:42;;;;;;;6.00;2.15;;;;;;;23.45;37.81;100866.69;1786471;80;20880;-72
2021/09/26 11:24:26;;;;;;;5.97;2.05;;;;;;;23.42;39.11;100858.17;1785062;80;21162;-71
2021/09/26 11:27:10;;;;;;;4.15;1.90;;;;;;;23.49;39.65;100859.16;1786814;80;21444;-70
2021/09/26 11:29:48;;;;;;;4.80;2.00;;;;;;;23.56;39.06;100856.95;1786588;80;20887;-71
2021/09/26 11:32:25;;;;;;;2.92;1.42;;;;;;;23.55;38.51;100849.11;1786948;79;20923;-71
2021/09/26 11:35:00;;;;;;;4.53;2.47;;;;;;;23.45;39.02;100855.98;1786437;79;20883;-70
2021/09/26 11:37:42;;;;;;;6.62;2.35;;;;;;;23.36;39.87;100867.70;1786067;80;21131;-70
2021/09/26 11:40:14;;;;;;;6.10;2.22;;;;;;;23.23;40.04;100860.70;1786419;79;21449;-70